Time;durP1;ratioP1;P1;durP2;ratioP2;P2;SDS_P1;SDS_P2;PMS_P1;PMS_P2;Temp;Humidity;BMP_temperature;BMP_pressure;BME280_temperature;BME280_humidity;BME280_pressure;Samples;Min_cycle;Max_cycle;Signal;HPM_P1;HPM_P2
2022/08/05 00:01:36;;;;;;;0.68;0.68;;;;;;;-145.16;100.00;77227.93;653668;217;32395;-69
2022/08/05 00:07:35;;;;;;;0.40;0.40;;;;;;;-145.16;100.00;77242.02;645185;217;42964;-72
2022/08/05 00:13:35;;;;;;;0.40;0.40;;;;;;;-145.16;100.00;77230.95;645185;218;43059;-70
2022/08/05 00:19:34;;;;;;;0.55;0.55;;;;;;;-145.16;100.00;77255.11;645162;218;32720;-69
2022/08/05 00:25:33;;;;;;;0.70;0.70;;;;;;;-145.16;100.00;77251.08;645164;217;43427;-71
2022/08/05 00:31:32;;;;;;;0.77;0.77;;;;;;;-145.16;100.00;77252.09;645172;216;32374;-69
2022/08/05 00:37:32;;;;;;;0.40;0.40;;;;;;;-145.16;100.00;77262.16;653791;218;32383;-72
2022/08/05 00:43:31;;;;;;;1.50;1.40;;;;;;;-145.16;100.00;77281.28;645176;217;43474;-69
2022/08/05 00:49:30;;;;;;;0.60;0.50;;;;;;;-145.16;100.00;77292.36;653686;217;32359;-72
2022/08/05 00:55:30;;;;;;;0.80;0.80;;;;;;;-145.16;100.00;77282.29;645173;217;43105;-69
2022/08/05 01:01:29;;;;;;;2.60;1.85;;;;;;;-145.16;100.00;77288.33;645184;217;32431;-69
2022/08/05 01:07:28;;;;;;;1.02;1.02;;;;;;;-145.16;100.00;77255.11;645188;217;32427;-71
2022/08/05 01:13:30;;;;;;;4.50;1.50;;;;;;;-145.16;100.00;77277.26;645058;217;32409;-72
2022/08/05 01:19:31;;;;;;;4.28;1.35;;;;;;;-145.16;100.00;77298.40;653690;218;32299;-69
2022/08/05 01:25:32;;;;;;;6.18;1.42;;;;;;;-145.16;100.00;77304.44;653692;217;32430;-69
2022/08/05 01:31:32;;;;;;;1.98;0.35;;;;;;;-145.16;100.00;77317.52;645190;218;32346;-72
2022/08/05 01:37:32;;;;;;;1.62;0.82;;;;;;;-145.16;100.00;77321.55;645171;218;43369;-69
2022/08/05 01:43:31;;;;;;;0.22;0.22;;;;;;;-145.16;100.00;77322.56;645179;218;32364;-72
2022/08/05 01:49:31;;;;;;;0.40;0.40;;;;;;;-145.16;100.00;77339.67;645185;217;32382;-72
2022/08/05 01:55:30;;;;;;;0.20;0.20;;;;;;;-145.16;100.00;77324.57;645179;217;32366;-72
2022/08/05 02:01:29;;;;;;;0.30;0.30;;;;;;;-145.16;100.00;77320.55;653689;217;32374;-70
2022/08/05 02:07:28;;;;;;;0.40;0.40;;;;;;;-145.16;100.00;77336.66;645254;217;37488;-69
2022/08/05 02:13:29;;;;;;;1.58;1.48;;;;;;;-145.16;100.00;77322.56;645153;217;32375;-71
2022/08/05 02:19:28;;;;;;;0.80;0.80;;;;;;;-145.16;100.00;77339.67;645189;217;32377;-69
2022/08/05 02:25:28;;;;;;;1.40;1.30;;;;;;;-145.16;100.00;77366.86;645181;217;32700;-72
2022/08/05 02:31:27;;;;;;;2.70;1.20;;;;;;;-145.16;100.00;77357.80;645177;217;32387;-69
2022/08/05 02:37:28;;;;;;;0.30;0.30;;;;;;;-145.16;100.00;77396.05;645036;216;53763;-70
2022/08/05 02:43:28;;;;;;;0.55;0.45;;;;;;;-145.16;100.00;77392.02;645178;217;32326;-71
2022/08/05 02:49:27;;;;;;;6.97;1.23;;;;;;;-145.16;100.00;77396.05;645180;217;32382;-69
2022/08/05 02:55:27;;;;;;;2.70;0.90;;;;;;;-145.16;100.00;77415.17;653703;217;32345;-72
2022/08/05 03:01:27;;;;;;;0.80;0.80;;;;;;;-145.16;100.00;77420.21;645198;217;43132;-72
2022/08/05 03:07:26;;;;;;;0.20;0.20;;;;;;;-145.16;100.00;77414.17;645196;218;32358;-70
2022/08/05 03:13:25;;;;;;;1.10;1.10;;;;;;;-145.16;100.00;77421.22;645179;217;32396;-72
2022/08/05 03:19:25;;;;;;;0.90;0.90;;;;;;;-145.16;100.00;77414.17;645173;217;32755;-72
2022/08/05 03:25:25;;;;;;;0.93;0.93;;;;;;;-145.16;100.00;77416.19;645177;216;32397;-70
2022/08/05 03:31:23;;;;;;;0.70;0.43;;;;;;;-145.16;100.00;77447.39;645184;217;32622;-73
2022/08/05 03:37:23;;;;;;;0.20;0.20;;;;;;;-145.16;100.00;77444.38;645200;217;43146;-72
2022/08/05 03:43:25;;;;;;;0.50;0.50;;;;;;;-145.16;100.00;77441.35;653676;213;32375;-70
2022/08/05 03:49:24;;;;;;;4.50;2.00;;;;;;;-145.16;100.00;77429.27;645181;217;32378;-72
2022/08/05 03:55:23;;;;;;;0.20;0.20;;;;;;;-145.16;100.00;77423.23;653680;217;43095;-70
2022/08/05 04:01:23;;;;;;;0.87;0.87;;;;;;;-145.16;100.00;77421.22;645193;217;33329;-72
2022/08/05 04:07:22;;;;;;;0.10;0.10;;;;;;;-145.16;100.00;77434.30;645189;217;43063;-71
2022/08/05 04:13:22;;;;;;;0.10;0.10;;;;;;;-145.16;100.00;77425.24;645172;217;32487;-73
2022/08/05 04:19:22;;;;;;;0.90;0.90;;;;;;;-145.16;100.00;77445.38;653686;217;32377;-73
2022/08/05 04:25:23;;;;;;;0.20;0.20;;;;;;;-145.16;100.00;77454.44;645025;217;32366;-70
2022/08/05 04:31:23;;;;;;;0.20;0.20;;;;;;;-145.16;100.00;77456.45;645173;217;32688;-72
2022/08/05 04:37:22;;;;;;;0.20;0.20;;;;;;;-145.16;100.00;77480.61;645181;217;32323;-72
2022/08/05 04:43:25;;;;;;;0.30;0.30;;;;;;;-145.16;100.00;77471.55;645042;217;43292;-72
2022/08/05 04:49:24;;;;;;;0.50;0.40;;;;;;;-145.16;100.00;77503.77;645165;217;43048;-72
2022/08/05 04:55:24;;;;;;;0.60;0.60;;;;;;;-145.16;100.00;77491.69;653676;217;32365;-72
2022/08/05 05:01:23;;;;;;;0.20;0.20;;;;;;;-145.16;100.00;77467.52;653680;218;32381;-72
2022/08/05 05:07:22;;;;;;;4.40;0.80;;;;;;;-145.16;100.00;77466.52;645179;217;43373;-72
2022/08/05 05:13:22;;;;;;;0.20;0.20;;;;;;;-145.16;100.00;77458.47;645188;217;32392;-71
2022/08/05 05:19:22;;;;;;;1.00;0.80;;;;;;;-145.16;100.00;77434.30;645183;218;32379;-72
2022/08/05 05:25:21;;;;;;;0.40;0.40;;;;;;;-145.16;100.00;77392.02;653692;217;32392;-72
2022/08/05 05:31:20;;;;;;;3.90;2.03;;;;;;;-145.16;100.00;77402.09;645180;218;32420;-72
2022/08/05 05:37:19;;;;;;;0.62;0.62;;;;;;;-145.16;100.00;77372.89;653687;217;32379;-70
2022/08/05 05:43:21;;;;;;;0.20;0.20;;;;;;;-145.16;100.00;77454.44;653653;217;32383;-72
2022/08/05 05:49:21;;;;;;;0.35;0.35;;;;;;;-145.16;100.00;77472.56;645070;218;32326;-72
2022/08/05 05:55:20;;;;;;;0.20;0.20;;;;;;;-145.16;100.00;77214.84;642160;218;32325;-72
2022/08/05 06:01:20;;;;;;;0.55;0.55;;;;;;;-145.16;100.00;76924.94;645157;218;32681;-72
2022/08/05 06:07:22;;;;;;;0.57;0.57;;;;;;;-145.16;100.00;77117.20;645021;218;32414;-73
2022/08/05 06:13:21;;;;;;;0.43;0.43;;;;;;;-145.16;100.00;77246.05;645176;217;32399;-72
2022/08/05 06:19:21;;;;;;;1.87;0.88;;;;;;;-145.16;100.00;77255.11;653662;217;43172;-72
2022/08/05 06:25:20;;;;;;;10.02;1.58;;;;;;;-145.16;100.00;77289.34;653640;217;32386;-72
2022/08/05 06:31:19;;;;;;;3.10;0.90;;;;;;;-145.16;100.00;77239.00;645173;217;32350;-71
2022/08/05 06:37:19;;;;;;;6.12;1.30;;;;;;;-145.16;100.00;77235.98;645198;217;32360;-72
2022/08/05 06:43:19;;;;;;;0.70;0.70;;;;;;;-145.16;100.00;77188.67;645186;218;43073;-70
2022/08/05 06:49:19;;;;;;;0.80;0.80;;;;;;;-145.16;100.00;77159.48;642821;217;43220;-71
2022/08/05 06:55:18;;;;;;;1.42;1.05;;;;;;;-145.16;100.00;77183.64;645192;217;32344;-72
2022/08/05 07:01:18;;;;;;;0.80;0.80;;;;;;;-145.16;100.00;77246.05;645180;217;32371;-72
2022/08/05 07:07:17;;;;;;;1.12;0.80;;;;;;;-145.16;100.00;77200.75;645193;218;32338;-73
2022/08/05 07:19:34;;;;;;;0.60;0.60;;;;;;;-145.16;100.00;77169.55;645148;217;32663;-70
2022/08/05 07:25:36;;;;;;;0.95;0.95;;;;;;;-145.16;100.00;77175.58;645178;217;32356;-70
2022/08/05 07:31:35;;;;;;;0.80;0.80;;;;;;;-145.16;100.00;77118.20;645182;218;43123;-73
2022/08/05 07:37:36;;;;;;;1.20;1.10;;;;;;;-145.16;100.00;77162.50;645166;217;32393;-72
2022/08/05 07:43:33;;;;;;;0.50;0.50;;;;;;;-145.16;100.00;77193.70;645169;217;32993;-70
2022/08/05 07:49:33;;;;;;;4.15;1.20;;;;;;;-145.16;100.00;77056.80;645169;217;32425;-72
2022/08/05 07:55:32;;;;;;;1.52;1.42;;;;;;;-145.16;100.00;76990.36;645170;217;32414;-70
2022/08/05 08:01:31;;;;;;;1.95;0.80;;;;;;;-145.16;100.00;76998.41;653672;217;32369;-73
2022/08/05 08:07:31;;;;;;;0.90;0.90;;;;;;;-145.16;100.00;76995.39;645182;218;32378;-70
2022/08/05 08:13:30;;;;;;;0.40;0.40;;;;;;;-145.16;100.00;77105.12;645160;217;32697;-70
2022/08/05 08:19:29;;;;;;;0.82;0.82;;;;;;;-145.16;100.00;77143.37;653679;217;32413;-70
2022/08/05 08:25:29;;;;;;;0.30;0.30;;;;;;;-145.16;100.00;77131.29;645186;217;32365;-70
2022/08/05 08:31:28;;;;;;;0.30;0.30;;;;;;;-145.16;100.00;77057.80;645190;218;32428;-73
2022/08/05 08:37:27;;;;;;;0.40;0.40;;;;;;;-145.16;100.00;76412.62;645176;218;32351;-71
2022/08/05 08:43:27;;;;;;;0.43;0.43;;;;;;;-145.16;92.05;76271.72;645183;217;32360;-70
2022/08/05 08:49:28;;;;;;;0.98;0.65;;;;;;;-145.16;81.23;76216.37;645045;217;32362;-71
2022/08/05 08:55:27;;;;;;;1.75;0.62;;;;;;;-145.16;73.32;76237.50;645167;216;32360;-71
2022/08/05 09:01:26;;;;;;;0.70;0.50;;;;;;;-145.16;74.95;76298.89;645180;217;32355;-71
2022/08/05 09:07:25;;;;;;;0.75;0.75;;;;;;;-145.16;69.24;76530.38;645170;218;32362;-71
2022/08/05 09:13:25;;;;;;;0.50;0.50;;;;;;;-145.16;68.79;76635.05;653677;216;43146;-70
2022/08/05 09:19:26;;;;;;;0.50;0.50;;;;;;;-145.16;67.03;76261.66;645022;217;32359;-71
2022/08/05 09:25:25;;;;;;;2.80;0.70;;;;;;;-145.16;62.47;76482.06;645175;216;32659;-71
2022/08/05 09:31:25;;;;;;;0.30;0.30;;;;;;;-145.16;64.26;76295.88;645161;217;32355;-71
2022/08/05 09:37:25;;;;;;;0.57;0.57;;;;;;;-145.16;57.85;76367.33;645124;217;32353;-71
2022/08/05 09:43:25;;;;;;;0.40;0.40;;;;;;;-145.16;57.78;76337.14;653637;214;32360;-71
2022/08/05 09:49:36;;;;;;;0.50;0.50;;;;;;;-145.16;56.51;76274.73;645175;217;32380;-71
2022/08/05 09:55:37;;;;;;;0.80;0.80;;;;;;;-145.16;56.69;76651.16;645145;218;32385;-71
2022/08/05 10:01:37;;;;;;;0.73;0.73;;;;;;;-145.16;59.26;76780.99;653670;217;32476;-70
2022/08/05 10:07:35;;;;;;;0.60;0.60;;;;;;;-145.16;61.13;76597.81;643993;217;43168;-71
2022/08/05 10:13:35;;;;;;;0.45;0.45;;;;;;;-145.16;58.47;76448.84;645160;218;32384;-71
2022/08/05 10:19:41;;;;;;;0.40;0.40;;;;;;;-145.16;62.86;76793.08;645179;218;32323;-70
2022/08/05 10:25:40;;;;;;;0.55;0.55;;;;;;;-145.16;61.75;76813.20;645171;217;32420;-73
2022/08/05 10:31:39;;;;;;;0.40;0.40;;;;;;;-145.16;66.06;76898.77;641172;217;32514;-70
2022/08/05 10:37:41;;;;;;;2.40;0.93;;;;;;;-145.16;61.82;76734.69;645021;217;43082;-70
2022/08/05 10:43:41;;;;;;;0.40;0.40;;;;;;;-145.16;57.84;76423.69;645148;217;32361;-71
2022/08/05 10:49:56;;;;;;;0.43;0.43;;;;;;;-145.16;62.68;76797.09;645166;217;32366;-70
2022/08/05 10:55:55;;;;;;;0.40;0.40;;;;;;;-145.16;60.99;76727.65;645179;217;32420;-71
2022/08/05 11:02:03;;;;;;;0.40;0.40;;;;;;;-145.16;63.63;76756.84;644986;217;32378;-70
2022/08/05 11:08:03;;;;;;;0.35;0.35;;;;;;;-145.16;60.30;76708.52;642086;217;32574;-71
2022/08/05 11:14:04;;;;;;;0.62;0.62;;;;;;;-145.16;59.03;76740.73;643967;217;32315;-71
2022/08/05 11:20:38;;;;;;;0.40;0.40;;;;;;;-145.16;57.85;76742.75;645168;217;32374;-71
2022/08/05 11:26:42;;;;;;;0.40;0.40;;;;;;;-145.16;52.41;76759.86;645163;216;32372;-70
2022/08/05 11:32:47;;;;;;;2.50;1.00;;;;;;;-145.16;52.08;76682.35;645180;217;32338;-70
2022/08/05 11:39:05;;;;;;;0.32;0.32;;;;;;;-145.16;49.61;76769.92;650883;218;32533;-71
2022/08/05 11:45:05;;;;;;;0.90;0.50;;;;;;;-145.16;50.69;76797.09;644587;217;32523;-71
2022/08/05 11:51:04;;;;;;;0.43;0.43;;;;;;;-145.16;57.14;76989.36;645133;217;32441;-71
2022/08/05 11:57:03;;;;;;;0.80;0.80;;;;;;;-145.16;57.18;77050.76;645111;217;32363;-71
2022/08/05 12:03:03;;;;;;;0.40;0.40;;;;;;;-145.16;59.17;76938.02;653686;217;32359;-71
2022/08/05 12:09:04;;;;;;;0.50;0.50;;;;;;;-145.16;58.03;76908.83;653693;217;32364;-70
2022/08/05 12:15:02;;;;;;;0.73;0.52;;;;;;;-145.16;55.97;76901.78;645180;217;32318;-71
2022/08/05 12:21:01;;;;;;;0.30;0.30;;;;;;;-145.16;54.65;76946.07;641560;217;32513;-71
2022/08/05 12:27:11;;;;;;;0.50;0.50;;;;;;;-145.16;51.65;76815.22;653604;218;32399;-73
2022/08/05 12:33:14;;;;;;;1.90;1.80;;;;;;;-145.16;47.22;76821.25;653656;217;32316;-71
2022/08/05 12:39:14;;;;;;;0.40;0.40;;;;;;;-145.16;51.36;76775.96;648436;218;32315;-71
2022/08/05 12:45:17;;;;;;;0.50;0.50;;;;;;;-145.16;50.78;76826.29;645021;218;32371;-70
2022/08/05 12:51:16;;;;;;;0.50;0.50;;;;;;;-145.16;50.97;76880.64;645139;217;32378;-70
2022/08/05 12:57:15;;;;;;;0.60;0.60;;;;;;;-145.16;51.86;76780.99;645151;216;32400;-73
2022/08/05 13:03:15;;;;;;;0.40;0.40;;;;;;;-145.16;47.97;76745.77;647881;217;32515;-71
2022/08/05 13:09:14;;;;;;;0.40;0.40;;;;;;;-145.16;49.19;76811.19;644070;217;32357;-74
2022/08/05 13:15:15;;;;;;;0.50;0.50;;;;;;;-145.16;49.69;76805.15;645178;217;32344;-70
2022/08/05 13:21:14;;;;;;;1.30;1.20;;;;;;;-145.16;49.87;76719.59;645149;217;32374;-70
2022/08/05 13:27:14;;;;;;;0.45;0.45;;;;;;;-145.16;54.16;76926.95;644846;217;32403;-71
2022/08/05 13:33:13;;;;;;;0.40;0.40;;;;;;;-145.16;52.27;76875.61;644860;217;32379;-70
2022/08/05 13:39:14;;;;;;;0.40;0.40;;;;;;;-145.16;51.14;76929.97;642948;217;32359;-70
2022/08/05 13:45:13;;;;;;;0.40;0.40;;;;;;;-145.16;54.26;76917.89;635929;217;32500;-70
2022/08/05 13:51:13;;;;;;;0.40;0.40;;;;;;;-145.16;54.51;76915.88;639924;217;32496;-71
2022/08/05 13:57:12;;;;;;;0.30;0.30;;;;;;;-145.16;54.45;76885.67;645166;217;32356;-70
2022/08/05 14:03:11;;;;;;;0.90;0.35;;;;;;;-145.16;53.71;76947.08;645158;216;32379;-71
2022/08/05 14:08:54;;;;;;;1.30;1.30;;;;;;;;;;645030;217;32353;-71
2022/08/05 14:14:35;;;;;;;9.00;1.30;;;;;;;-145.16;59.40;77369.88;653678;217;32364;-70
2022/08/05 14:20:34;;;;;;;0.30;0.30;;;;;;;-145.16;62.97;77178.60;645149;218;32364;-70
2022/08/05 14:26:33;;;;;;;0.30;0.30;;;;;;;-145.16;61.13;77040.70;643987;217;32367;-70
2022/08/05 14:32:33;;;;;;;0.30;0.30;;;;;;;-145.16;57.08;77031.63;640250;217;43271;-70
2022/08/05 14:38:32;;;;;;;0.37;0.37;;;;;;;-145.16;58.51;77202.77;653681;217;32359;-73
2022/08/05 14:44:31;;;;;;;0.57;0.57;;;;;;;-145.16;57.73;77214.84;642047;217;32490;-70
2022/08/05 14:50:31;;;;;;;0.30;0.30;;;;;;;-145.16;54.95;77194.70;636482;217;32602;-71
2022/08/05 14:56:30;;;;;;;2.60;0.40;;;;;;;-145.16;54.36;77285.31;643151;217;43208;-71
2022/08/05 15:02:29;;;;;;;0.20;0.20;;;;;;;-145.16;54.83;77217.86;645166;218;43039;-71
2022/08/05 15:08:28;;;;;;;0.47;0.47;;;;;;;-145.16;55.06;77053.78;645167;217;32365;-70
2022/08/05 15:14:28;;;;;;;0.30;0.30;;;;;;;-145.16;55.42;77195.72;645193;216;43054;-70
2022/08/05 15:20:27;;;;;;;0.30;0.30;;;;;;;-145.16;59.46;77191.69;645175;217;43080;-70
2022/08/05 15:26:28;;;;;;;0.30;0.30;;;;;;;-145.16;60.21;77181.63;645025;217;32377;-70
2022/08/05 15:32:28;;;;;;;0.30;0.30;;;;;;;-145.16;58.40;77100.08;645185;217;43342;-73
2022/08/05 15:38:27;;;;;;;0.40;0.40;;;;;;;-145.16;59.37;77159.48;645149;217;43123;-72
2022/08/05 15:44:27;;;;;;;0.35;0.35;;;;;;;-145.16;61.78;77254.11;645196;217;32618;-70
2022/08/05 15:50:27;;;;;;;0.30;0.30;;;;;;;-145.16;69.16;77214.84;645048;218;43066;-70
2022/08/05 15:56:26;;;;;;;0.40;0.40;;;;;;;-145.16;70.41;77229.94;645186;216;43067;-71
2022/08/05 16:02:26;;;;;;;0.40;0.40;;;;;;;-145.16;73.08;77222.89;645181;217;32370;-70
2022/08/05 16:08:25;;;;;;;0.25;0.25;;;;;;;-145.16;73.12;77272.22;645185;217;32363;-73
2022/08/05 16:14:26;;;;;;;0.70;0.60;;;;;;;-145.16;79.57;77494.70;645035;218;32401;-73
2022/08/05 16:20:26;;;;;;;0.30;0.30;;;;;;;-145.16;82.08;77394.03;653665;217;32670;-73
2022/08/05 16:26:27;;;;;;;0.20;0.20;;;;;;;-145.16;81.75;77455.45;653660;218;32345;-71
2022/08/05 16:32:26;;;;;;;0.47;0.47;;;;;;;-145.16;83.03;77465.52;653677;218;32363;-70
2022/08/05 16:38:26;;;;;;;0.30;0.30;;;;;;;-145.16;77.56;77319.54;645174;218;32435;-73
2022/08/05 16:44:26;;;;;;;0.80;0.62;;;;;;;-145.16;75.50;77331.62;645175;217;32369;-70
2022/08/05 16:50:24;;;;;;;0.30;0.30;;;;;;;-145.16;69.69;77251.08;645181;217;32354;-70
2022/08/05 16:56:23;;;;;;;0.32;0.32;;;;;;;-145.16;75.39;77315.52;643644;217;32330;-70
2022/08/05 17:02:23;;;;;;;0.40;0.40;;;;;;;-145.16;69.67;77382.96;645135;217;32392;-70
2022/08/05 17:08:22;;;;;;;2.10;0.90;;;;;;;-145.16;71.10;77475.58;653685;216;32353;-72
2022/08/05 17:14:24;;;;;;;0.30;0.30;;;;;;;-145.16;70.35;77439.34;653648;217;32357;-70
2022/08/05 17:20:26;;;;;;;0.28;0.28;;;;;;;-145.16;67.55;77476.59;645173;217;32377;-73
2022/08/05 17:26:25;;;;;;;0.20;0.20;;;;;;;-145.16;68.07;77477.59;645158;218;43063;-72
2022/08/05 17:32:24;;;;;;;0.30;0.30;;;;;;;-145.16;70.76;77556.13;645177;217;32366;-70
2022/08/05 17:38:24;;;;;;;4.70;2.08;;;;;;;-145.16;75.76;77664.86;645210;217;32374;-72
2022/08/05 17:44:23;;;;;;;0.30;0.30;;;;;;;-145.16;78.16;77743.39;645197;218;32403;-72
2022/08/05 17:50:25;;;;;;;0.28;0.28;;;;;;;-145.16;79.71;77743.39;653644;216;32356;-72
2022/08/05 17:56:24;;;;;;;0.30;0.30;;;;;;;-145.16;82.07;77771.58;645144;217;32381;-70
2022/08/05 18:02:23;;;;;;;0.20;0.20;;;;;;;-145.16;84.15;77785.67;653671;217;32382;-72
2022/08/05 18:08:23;;;;;;;0.10;0.10;;;;;;;-145.16;84.76;77820.91;653703;217;32336;-72
2022/08/05 18:14:22;;;;;;;0.20;0.20;;;;;;;-145.16;81.72;77824.94;653669;217;43045;-72
2022/08/05 18:20:22;;;;;;;0.17;0.17;;;;;;;-145.16;86.38;77877.30;645197;217;43062;-72
2022/08/05 18:26:21;;;;;;;0.20;0.20;;;;;;;-145.16;86.52;77885.35;653684;217;32365;-72
2022/08/05 18:32:20;;;;;;;0.50;0.50;;;;;;;-145.16;89.25;77918.58;645158;216;34308;-72
2022/08/05 18:38:20;;;;;;;0.20;0.20;;;;;;;-145.16;90.26;77943.75;645148;216;32370;-72
2022/08/05 18:44:20;;;;;;;0.10;0.10;;;;;;;-145.16;97.74;77996.11;653690;218;32390;-72
2022/08/05 18:56:39;;;;;;;0.30;0.30;;;;;;;-145.16;100.00;78005.17;653672;217;32375;-72
2022/08/05 19:02:40;;;;;;;0.20;0.20;;;;;;;-145.16;99.24;78000.14;645069;217;32374;-72
2022/08/05 19:08:40;;;;;;;0.10;0.10;;;;;;;-145.16;100.00;78032.36;645171;217;43100;-72
2022/08/05 19:14:39;;;;;;;0.20;0.20;;;;;;;-145.16;100.00;78063.58;645167;216;32404;-72
2022/08/05 19:20:40;;;;;;;3.10;0.50;;;;;;;-145.16;100.00;78103.84;645089;217;34309;-72
2022/08/05 19:26:39;;;;;;;0.17;0.17;;;;;;;-145.16;100.00;78122.98;645151;216;32368;-72
2022/08/05 19:32:39;;;;;;;0.10;0.10;;;;;;;-145.16;100.00;78118.95;645183;217;32431;-72
2022/08/05 19:38:40;;;;;;;0.20;0.20;;;;;;;-145.16;100.00;78124.99;645160;217;32378;-72
2022/08/05 19:44:40;;;;;;;0.17;0.17;;;;;;;-145.16;100.00;78139.09;653657;217;33613;-72
2022/08/05 19:50:38;;;;;;;0.10;0.10;;;;;;;-145.16;100.00;78159.23;653685;217;54069;-72
2022/08/05 19:56:37;;;;;;;0.20;0.20;;;;;;;-145.16;100.00;78176.34;645164;217;32367;-72
2022/08/05 20:02:37;;;;;;;0.10;0.10;;;;;;;-145.16;100.00;78194.47;645239;216;32491;-72
2022/08/05 20:08:37;;;;;;;0.13;0.13;;;;;;;-145.16;100.00;78224.69;644636;218;32350;-72
2022/08/05 20:14:35;;;;;;;0.10;0.10;;;;;;;-145.16;100.00;78251.88;653748;216;35338;-72
2022/08/05 20:20:34;;;;;;;0.10;0.10;;;;;;;-145.16;100.00;78310.28;645179;216;32645;-73
2022/08/05 20:26:34;;;;;;;0.10;0.10;;;;;;;-145.16;100.00;78307.26;653785;217;33880;-71
2022/08/05 20:32:34;;;;;;;0.10;0.10;;;;;;;-145.16;100.00;78329.41;653687;217;32379;-72
2022/08/05 20:38:34;;;;;;;0.08;0.08;;;;;;;-145.16;100.00;78360.63;645040;218;32628;-72
2022/08/05 20:44:33;;;;;;;0.13;0.13;;;;;;;-145.16;100.00;78395.88;653687;217;32363;-72
2022/08/05 20:50:33;;;;;;;0.10;0.10;;;;;;;-145.16;100.00;78461.33;645149;217;32379;-72
2022/08/05 20:56:32;;;;;;;0.10;0.10;;;;;;;-145.16;100.00;78497.58;645163;216;32375;-72
2022/08/05 21:02:31;;;;;;;0.20;0.20;;;;;;;-145.16;100.00;78474.42;645233;217;35358;-72
2022/08/05 21:08:31;;;;;;;0.10;0.10;;;;;;;-145.16;100.00;78509.67;645259;217;35250;-73
2022/08/05 21:14:30;;;;;;;0.10;0.10;;;;;;;-145.16;100.00;78533.84;653761;216;35340;-72
2022/08/05 21:20:29;;;;;;;0.10;0.10;;;;;;;-145.16;100.00;78548.94;653673;217;32383;-72
2022/08/05 21:26:28;;;;;;;0.10;0.10;;;;;;;-145.16;100.00;78598.29;645236;217;34361;-72
2022/08/05 21:32:28;;;;;;;0.10;0.10;;;;;;;-145.16;100.00;78620.45;645173;217;32375;-72
2022/08/05 21:38:27;;;;;;;0.10;0.10;;;;;;;-145.16;100.00;78646.63;653789;217;33385;-72
2022/08/05 21:44:26;;;;;;;0.13;0.13;;;;;;;-145.16;100.00;78655.69;653702;216;34308;-71
2022/08/05 21:50:25;;;;;;;0.10;0.10;;;;;;;-145.16;100.00;78595.27;645191;217;33376;-72
2022/08/05 21:56:25;;;;;;;0.10;0.10;;;;;;;-145.16;100.00;78618.43;645194;216;33326;-71
2022/08/05 22:02:26;;;;;;;0.17;0.17;;;;;;;-145.16;100.00;78637.56;645025;217;32364;-72
2022/08/05 22:08:25;;;;;;;0.10;0.10;;;;;;;-145.16;100.00;78667.78;653756;217;36157;-71
2022/08/05 22:14:24;;;;;;;0.10;0.10;;;;;;;-145.16;100.00;78672.81;645174;217;32379;-72
2022/08/05 22:20:24;;;;;;;0.10;0.10;;;;;;;-145.16;100.00;78691.95;645178;217;33349;-72
2022/08/05 22:32:40;;;;;;;0.10;0.10;;;;;;;-145.16;100.00;78703.03;645237;217;34351;-71
2022/08/05 22:38:41;;;;;;;0.00;0.00;;;;;;;-145.16;100.00;78722.16;653665;217;32385;-71
2022/08/05 22:44:42;;;;;;;0.10;0.10;;;;;;;-145.16;100.00;78744.32;645030;217;33338;-72
2022/08/05 22:50:42;;;;;;;0.10;0.10;;;;;;;-145.16;100.00;78774.53;645176;218;43117;-72
2022/08/05 22:56:41;;;;;;;0.00;0.00;;;;;;;-145.16;100.00;78786.62;645155;218;32368;-72
2022/08/05 23:02:40;;;;;;;0.07;0.07;;;;;;;-145.16;100.00;78773.53;645155;217;32360;-72
2022/08/05 23:08:39;;;;;;;0.10;0.10;;;;;;;-145.16;100.00;78793.67;653694;217;32397;-71
2022/08/05 23:14:39;;;;;;;0.10;0.10;;;;;;;-145.16;100.00;78831.94;645180;217;32361;-72
2022/08/05 23:20:38;;;;;;;0.10;0.10;;;;;;;-145.16;100.00;78835.97;653702;217;32325;-72
2022/08/05 23:26:37;;;;;;;0.00;0.00;;;;;;;-145.16;100.00;78843.02;645195;217;32416;-72
2022/08/05 23:32:36;;;;;;;0.10;0.10;;;;;;;-145.16;100.00;78862.16;645272;217;34307;-72
2022/08/05 23:38:36;;;;;;;0.00;0.00;;;;;;;-145.16;100.00;78885.32;645191;218;33638;-72
2022/08/05 23:44:35;;;;;;;0.10;0.10;;;;;;;-145.16;100.00;78891.36;653672;217;33352;-72
2022/08/05 23:50:34;;;;;;;0.03;0.03;;;;;;;-145.16;100.00;78875.25;645195;217;33342;-72
2022/08/05 23:56:33;;;;;;;0.10;0.10;;;;;;;-145.16;100.00;78872.23;645186;218;32436;-72
